Station: Rabbit Flat

  Atmospheric Gas Attenuation - ITU Rec 676-11   --------------- db/100km ---------------
Date Time Temp RH % AH g/m3 Dew Point Wind Direction Speed kph Gust kph Barometer mB Rainfall Since 9am 24GHz 47GHz 76GHz 122GHz 134GHz 241GHz
11 22:40 21.8 42 8.06 8.3 9 11 1013.4 0 18.1 22.9 34.1 89.4 82.6 284.0
11 22:30 21.9 42 8.1 8.4 9 11 1013.3 0 18.2 23.0 34.2 89.6 82.9 285.2
11 22:20 22.3 40 7.9 8.1 9 11 1013.4 0 17.7 22.6 33.3 87.3 80.2 275.8
11 22:10 22.4 40 7.94 8.1 9 9 1013.4 0 17.8 22.6 33.4 87.6 80.6 277.1
11 22:00 22.8 39 7.92 8.1 9 11 1013.3 0 17.7 22.5 33.2 87.0 79.9 274.9
11 21:50 22.6 38 7.63 7.6 9 11 1013.3 0 17.1 22.1 32.3 84.5 76.8 264.0
11 21:40 23.1 37 7.65 7.6 9 9 1013.2 0 17.2 22.0 32.2 84.2 76.6 263.1
11 21:30 23.3 36 7.53 7.4 9 11 1013.2 0 16.9 21.8 31.7 82.9 75.0 257.8
11 21:20 23.7 34 7.27 6.9 9 11 1013.1 0 16.3 21.4 30.6 80.1 71.8 246.4
11 21:10 24 34 7.4 7.2 11 11 1013 0 16.6 21.5 31.0 81.0 72.9 250.5
11 21:00 23.9 34 7.36 7.1 11 15 1012.8 0 16.5 21.4 30.9 80.7 72.6 249.2
11 20:50 23.8 37 7.96 8.2 11 11 1012.7 0 17.8 22.3 32.9 86.2 79.4 273.0
11 20:40 24.2 35 7.7 7.8 9 11 1012.5 0 17.2 21.8 31.9 83.4 76.0 261.4
11 20:30 24.5 35 7.83 8 9 11 1012.4 0 17.5 21.9 32.2 84.3 77.2 265.5
11 20:20 25 32 7.37 7.2 9 9 1012.3 0 16.5 21.2 30.5 79.7 71.7 246.2
11 20:10 25.2 31 7.22 6.9 11 11 1012.2 0 16.2 20.9 29.9 78.2 69.9 239.9
11 20:00 25.4 30 7.06 6.6 11 13 1012.1 0 15.8 20.7 29.3 76.6 68.0 233.3
11 19:50 25.7 29 6.94 6.3 11 13 1011.9 0 15.6 20.4 28.8 75.3 66.5 227.9
11 19:40 26.2 29 7.14 6.8 11 11 1011.9 0 16.0 20.6 29.3 76.5 68.2 234.0
11 19:30 26.6 28 7.05 6.6 9 11 1011.8 0 15.8 20.4 28.8 75.4 66.9 229.5
11 19:20 26.9 27 6.91 6.3 9 11 1011.7 0 15.5 20.1 28.3 73.9 65.2 223.5
11 19:10 27.3 26 6.8 6.1 11 13 1011.6 0 15.2 19.9 27.8 72.6 63.7 218.4
11 19:00 27.8 25 6.72 6 9 13 1011.3 0 15.1 19.7 27.4 71.5 62.5 214.2
11 18:50 28.3 24 6.64 5.8 9 11 1011.2 0 14.9 19.5 27.0 70.4 61.3 210.1
11 18:40 29.1 22 6.35 5.2 11 11 1011.1 0 14.2 19.0 25.9 67.4 57.8 197.9
11 18:30 30 20 6.07 4.6 13 17 1011.1 0 13.6 18.4 24.8 64.5 54.5 186.2
11 18:20 30.8 19 6.02 4.5 13 15 1011 0 13.5 18.2 24.4 63.5 53.5 182.8
11 18:10 31.3 18 5.86 4.2 13 17 1011 0 13.2 18.0 23.8 61.9 51.6 176.3
11 18:00 31.8 18 6.01 4.6 15 22 1011 0 13.5 18.0 24.1 62.7 52.7 180.3
11 17:50 32.1 18 6.11 4.8 15 19 1011 0 13.7 18.1 24.3 63.2 53.5 183.0
11 17:40 32.3 18 6.18 5 15 19 1010.9 0 13.8 18.1 24.4 63.6 54.0 184.9
11 17:30 32.6 17 5.93 4.4 15 20 1010.9 0 13.3 17.8 23.6 61.5 51.5 176.0
11 17:20 32.7 18 6.31 5.3 9 9 1011 0 14.0 18.2 24.7 64.3 55.0 188.4
11 17:10 33 16 5.7 3.9 13 15 1011 0 12.8 17.5 22.9 59.5 49.1 167.7
11 17:00 33 16 5.7 3.9 15 22 1011.1 0 12.8 17.5 22.9 59.5 49.1 167.7
11 16:50 32.9 16 5.67 3.8 20 22 1011.1 0 12.7 17.4 22.8 59.3 48.9 166.9
11 16:40 33.1 15 5.37 3 22 26 1011.1 0 12.1 17.1 21.9 57.0 46.1 156.9
11 16:30 33.5 16 5.85 4.2 15 22 1011.1 0 13.1 17.5 23.1 60.3 50.2 171.6
11 16:20 33 17 6.05 4.7 15 19 1011.1 0 13.5 17.9 23.8 62.1 52.4 179.1
11 16:10 33.4 17 6.18 5 17 26 1011.2 0 13.8 17.9 24.1 62.8 53.3 182.6
11 16:00 33.4 17 6.18 5 13 22 1011.2 0 13.8 17.9 24.1 62.8 53.3 182.6
11 15:50 33.2 18 6.48 5.7 15 17 1011.3 0 14.4 18.3 25.0 65.3 56.3 193.0
11 15:40 33.6 17 6.25 5.2 15 17 1011.4 0 13.9 18.0 24.3 63.2 53.9 184.5
11 15:30 33.4 18 6.55 5.9 19 28 1011.6 0 14.5 18.4 25.2 65.7 56.8 194.9
11 15:20 33.2 19 6.84 6.5 17 20 1011.6 0 15.1 18.8 26.1 68.1 59.7 205.1
11 15:10 33 18 6.41 5.5 20 26 1011.7 0 14.2 18.3 24.9 64.9 55.8 191.1
11 15:00 32.8 17 5.99 4.6 17 35 1011.9 0 13.4 17.9 23.8 61.9 52.0 177.7
11 14:50 32.6 18 6.28 5.2 19 22 1012 0 14.0 18.2 24.6 64.2 54.8 187.8
11 14:40 32.9 18 6.38 5.5 15 20 1012 0 14.2 18.3 24.8 64.8 55.6 190.4
11 14:30 33.1 19 6.8 6.4 19 30 1012.2 0 15.0 18.8 26.0 67.9 59.5 204.1
11 14:20 32.5 19 6.59 5.9 24 28 1012.4 0 14.6 18.6 25.6 66.7 57.9 198.4
11 14:10 32.9 19 6.73 6.2 22 30 1012.6 0 14.9 18.7 25.9 67.5 59.0 202.3
11 14:00 32.5 19 6.59 5.9 20 30 1012.8 0 14.6 18.6 25.6 66.8 57.9 198.5
11 13:50 32.3 21 7.21 7.2 17 19 1012.9 0 15.9 19.4 27.5 71.8 64.1 220.2
11 13:40 31.8 22 7.35 7.5 26 30 1012.9 0 16.2 19.7 28.1 73.4 65.8 226.4
11 13:30 32 21 7.09 7 22 32 1013.1 0 15.7 19.3 27.2 71.1 63.1 216.9
11 13:20 32 21 7.09 7 17 20 1013.2 0 15.7 19.4 27.2 71.1 63.1 216.9
11 13:10 31.6 21 6.94 6.6 20 26 1013.4 0 15.4 19.3 26.9 70.3 62.0 212.8
11 13:00 31.1 22 7.08 6.9 22 37 1013.4 0 15.7 19.5 27.5 71.8 63.7 218.9
11 12:50 31.5 22 7.23 7.2 22 24 1013.6 0 16.0 19.6 27.8 72.7 64.9 223.1
11 12:40 31.6 22 7.27 7.3 20 28 1013.7 0 16.0 19.7 27.9 73.0 65.3 224.3
11 12:30 30.6 23 7.21 7.1 22 32 1013.8 0 16.0 19.8 28.1 73.3 65.4 224.9
11 12:20 30.7 23 7.24 7.2 26 32 1014 0 16.0 19.8 28.1 73.5 65.7 225.7
11 12:10 30.2 24 7.36 7.4 15 17 1014.1 0 16.3 20.1 28.7 74.9 67.3 231.3
11 12:00 30.2 24 7.36 7.4 22 35 1014.4 0 16.3 20.1 28.7 75.0 67.3 231.4
11 11:50 30.7 25 7.87 8.4 19 22 1014.5 0 17.3 20.6 30.1 78.8 72.1 248.3
11 11:40 30 27 8.19 9 19 22 1014.5 0 18.0 21.2 31.4 82.1 76.1 262.1
11 11:30 29.1 25 7.22 7.1 26 39 1014.7 0 16.0 20.2 28.6 74.8 66.8 229.4
11 11:20 30 26 7.89 8.4 26 33 1014.7 0 17.4 20.8 30.4 79.6 73.0 251.2
11 11:10 29.2 27 7.84 8.3 22 26 1014.7 0 17.3 20.9 30.5 79.9 73.1 251.7
11 11:00 29.4 28 8.22 9 20 30 1014.9 0 18.1 21.4 31.7 83.0 77.0 265.2
11 10:50 28.2 28 7.7 8 24 28 1015 0 17.1 21.0 30.5 79.7 72.6 249.6
11 10:40 28.2 28 7.7 8 28 33 1015 0 17.1 21.0 30.5 79.7 72.6 249.6
11 10:30 28.3 30 8.29 9.1 24 32 1015.1 0 18.3 21.7 32.3 84.7 78.8 271.4
11 10:20 27.7 31 8.29 9 26 33 1015.1 0 18.3 21.9 32.6 85.3 79.4 273.4
11 10:10 27.2 32 8.33 9.1 24 30 1015.1 0 18.4 22.0 32.9 86.2 80.3 276.6
11 10:00 27.4 33 8.68 9.7 22 33 1015.1 0 19.1 22.5 34.0 89.1 83.9 289.4
11 09:50 26.7 34 8.61 9.5 24 32 1015.1 0 19.0 22.5 34.0 89.3 83.9 289.1
11 09:40 26.3 34 8.42 9.2 30 35 1015.1 0 18.6 22.4 33.6 88.0 82.2 283.1
11 09:30 26.1 35 8.57 9.4 24 35 1015.1 0 18.9 22.6 34.2 89.5 84.1 289.7
11 09:20 25.5 35 8.29 8.9 28 35 1015.1 0 18.4 22.4 33.5 87.7 81.5 280.8
11 09:10 25.3 37 8.66 9.6 30 33 1015 0 19.2 23.0 34.8 91.2 85.9 296.1
11 09:00 24.9 38 8.7 9.6 26 37 1014.8 0 19.3 23.1 35.1 92.0 86.8 299.1
11 08:50 24.7 40 9.05 10.2 26 33 1014.8 0 20.0 23.7 36.4 95.5 91.0 313.9
11 08:40 24.3 41 9.07 10.2 30 35 1014.7 0 20.1 23.8 36.7 96.2 91.7 316.3
11 08:30 24 43 9.35 10.7 20 32 1014.6 0 20.7 24.3 37.8 99.2 95.3 329.0
11 08:20 23.6 44 9.36 10.6 17 20 1014.5 0 20.7 24.4 38.0 99.8 95.9 331.0
11 08:10 23.1 46 9.51 10.9 17 24 1014.4 0 21.1 24.7 38.8 101.8 98.3 339.3
11 08:00 22.4 48 9.53 10.9 15 19 1014.1 0 21.1 24.9 39.2 102.9 99.4 343.1
11 07:50 21.8 50 9.59 10.9 15 17 1014 0 21.3 25.2 39.7 104.3 100.9 348.2
11 07:40 20.9 52 9.47 10.7 11 13 1013.9 0 21.1 25.3 39.7 104.2 100.5 346.9
11 07:30 20.1 54 9.39 10.5 9 11 1013.8 0 21.0 25.4 39.8 104.4 100.6 346.9
11 07:20 19.7 54 9.17 10.1 9 11 1013.7 0 20.5 25.1 39.1 102.7 98.3 339.0
11 07:10 19.3 54 8.96 9.8 9 11 1013.6 0 20.1 24.9 38.5 101.1 96.2 331.5
11 07:00 19.3 54 8.96 9.8 11 17 1013.3 0 20.1 24.9 38.5 101.1 96.2 331.4
11 06:50 19.5 55 9.23 10.2 11 13 1013.2 0 20.6 25.3 39.4 103.5 99.3 342.3
11 06:40 18.7 55 8.8 9.5 7 9 1013.2 0 19.8 24.8 38.2 100.2 94.9 326.9
11 06:30 19.1 53 8.69 9.3 11 15 1013.1 0 19.5 24.5 37.6 98.6 93.1 320.5
11 06:20 19.1 53 8.69 9.3 9 11 1012.9 0 19.5 24.5 37.6 98.6 93.0 320.4
11 06:10 19.3 52 8.62 9.2 7 9 1012.7 0 19.4 24.4 37.2 97.6 91.9 316.5

Last Refresh: 11-Apr-2021 22:54:04

Bureau of Meteorology